< Cyclone 201917 2019 Season Cyclone 201920 >
Cyclone 201919 (Veronica)
Reiwa First Year East Japan Typhoon
General InformationDetailed Track InformationTrack Information on Google MapsList of All Images || ResourceGoogle EarthGE AnimationAtom FeedGeoJSON
Detalied Best Track Wind (Time Zone = UTC)
Year Month Day Hour Lat. Long. Wind (kt) Gust (kt) Direc. of Major Storm Axis Radius of Major Storm Axis (nm) Radius of Minor Storm Axis (nm) Direc. of Major Gale Axis Radius of Major Gale Axis (nm) Radius of Minor Gale Axis (nm) Image
2019 3 18 00 -12.9 122.7 20 45 symmetric - - symmetric - - Image
2019 3 18 06 -13.1 122.7 20 45 symmetric - - symmetric - - Image
2019 3 18 12 -13.3 122.4 25 45 symmetric - - symmetric - - Image
2019 3 18 18 -13.7 121.7 25 45 symmetric - - symmetric - - Image
2019 3 19 00 -13.9 120.8 30 45 symmetric - - symmetric - - Image
2019 3 19 06 -14.0 120.4 30 45 symmetric - - symmetric - - Image
2019 3 19 12 -14.1 120.3 35 50 symmetric - - symmetric - - Image
2019 3 19 18 -15.0 120.0 45 65 symmetric - - symmetric - - Image
2019 3 20 00 -15.1 119.1 50 70 symmetric - - symmetric - - Image
2019 3 20 06 -15.4 118.3 65 90 symmetric - - symmetric - - Image
2019 3 20 12 -15.7 118.0 75 105 symmetric - - symmetric - - Image
2019 3 20 18 -15.8 117.6 90 125 symmetric - - symmetric - - Image
2019 3 21 00 -16.3 117.7 115 160 symmetric - - symmetric - - Image
2019 3 21 06 -16.8 117.5 115 160 symmetric - - symmetric - - Image
2019 3 21 12 -17.2 117.3 105 145 symmetric - - symmetric - - Image
2019 3 21 18 -17.4 117.0 100 140 symmetric - - symmetric - - Image
2019 3 22 00 -17.5 116.9 95 135 symmetric - - symmetric - - Image
2019 3 22 06 -17.6 116.9 95 135 symmetric - - symmetric - - Image
2019 3 22 12 -17.8 116.9 95 135 symmetric - - symmetric - - Image
2019 3 22 18 -18.1 117.0 95 135 symmetric - - symmetric - - Image
2019 3 23 00 -18.5 117.0 90 125 symmetric - - symmetric - - Image
2019 3 23 06 -18.9 117.1 90 125 symmetric - - symmetric - - Image
2019 3 23 12 -19.2 117.3 90 125 symmetric - - symmetric - - Image
2019 3 23 18 -19.6 117.5 95 135 symmetric - - symmetric - - Image
2019 3 24 00 -19.9 117.6 95 135 symmetric - - symmetric - - Image
2019 3 24 06 -20.0 117.6 95 135 symmetric - - symmetric - - Image
2019 3 24 12 -20.2 117.7 90 125 symmetric - - symmetric - - Image
2019 3 24 18 -20.2 117.7 80 110 symmetric - - symmetric - - Image
2019 3 25 00 -20.3 117.5 60 85 symmetric - - symmetric - - Image
2019 3 25 06 -20.3 117.1 45 65 symmetric - - symmetric - - Image
2019 3 25 12 -20.3 116.9 40 55 symmetric - - symmetric - - Image
2019 3 25 18 -20.3 116.4 35 50 symmetric - - symmetric - - Image
2019 3 26 00 -20.8 115.7 30 45 symmetric - - symmetric - - Image
2019 3 26 06 -21.4 114.9 30 45 symmetric - - symmetric - - Image
2019 3 26 12 -21.7 114.4 30 45 symmetric - - symmetric - - Image
2019 3 26 18 -21.8 113.6 30 45 symmetric - - symmetric - - Image
2019 3 27 00 -22.2 112.8 30 45 symmetric - - symmetric - - Image
2019 3 27 06 -22.8 112.3 30 45 symmetric - - symmetric - - Image
2019 3 27 12 -22.8 112.0 30 45 symmetric - - symmetric - - Image
2019 3 27 18 -22.5 111.2 30 45 symmetric - - symmetric - - Image
2019 3 28 00 -22.1 110.2 30 45 symmetric - - symmetric - - Image
< Cyclone 201917 2019 Season Cyclone 201920 >

Help